sensor_id;sensor_type;location;lat;lon;timestamp;P1;durP1;ratioP1;P2;durP2;ratioP2
27424;SDS011;15244;49.088;11.886;2022-10-16T00:03:39;3.40;;;1.50;;
27424;SDS011;15244;49.088;11.886;2022-10-16T00:08:42;1.70;;;1.60;;
27424;SDS011;15244;49.088;11.886;2022-10-16T00:13:44;2.83;;;1.67;;
27424;SDS011;15244;49.088;11.886;2022-10-16T00:18:47;1.60;;;1.50;;
27424;SDS011;15244;49.088;11.886;2022-10-16T00:23:53;2.38;;;1.50;;
27424;SDS011;15244;49.088;11.886;2022-10-16T00:28:56;4.28;;;1.40;;
27424;SDS011;15244;49.088;11.886;2022-10-16T00:33:58;1.48;;;1.38;;
27424;SDS011;15244;49.088;11.886;2022-10-16T00:39:02;3.15;;;1.40;;
27424;SDS011;15244;49.088;11.886;2022-10-16T00:44:40;1.63;;;1.52;;
27424;SDS011;15244;49.088;11.886;2022-10-16T00:49:47;1.70;;;1.60;;
27424;SDS011;15244;49.088;11.886;2022-10-16T00:54:51;2.80;;;1.60;;
27424;SDS011;15244;49.088;11.886;2022-10-16T00:59:54;2.65;;;1.80;;
27424;SDS011;15244;49.088;11.886;2022-10-16T01:04:56;1.45;;;1.40;;
27424;SDS011;15244;49.088;11.886;2022-10-16T01:15:28;1.60;;;1.50;;
27424;SDS011;15244;49.088;11.886;2022-10-16T01:21:18;1.60;;;1.50;;
27424;SDS011;15244;49.088;11.886;2022-10-16T01:31:32;1.40;;;1.30;;
27424;SDS011;15244;49.088;11.886;2022-10-16T01:36:42;2.45;;;1.60;;
27424;SDS011;15244;49.088;11.886;2022-10-16T01:41:51;2.42;;;1.20;;
27424;SDS011;15244;49.088;11.886;2022-10-16T01:47:13;1.73;;;1.58;;
27424;SDS011;15244;49.088;11.886;2022-10-16T01:52:17;1.38;;;1.30;;
27424;SDS011;15244;49.088;11.886;2022-10-16T01:57:24;1.53;;;1.43;;
27424;SDS011;15244;49.088;11.886;2022-10-16T02:02:28;1.60;;;1.38;;
27424;SDS011;15244;49.088;11.886;2022-10-16T02:07:31;1.58;;;1.50;;
27424;SDS011;15244;49.088;11.886;2022-10-16T02:12:33;3.08;;;1.80;;
27424;SDS011;15244;49.088;11.886;2022-10-16T02:17:40;2.45;;;1.70;;
27424;SDS011;15244;49.088;11.886;2022-10-16T02:22:43;1.67;;;1.58;;
27424;SDS011;15244;49.088;11.886;2022-10-16T02:27:53;1.98;;;1.60;;
27424;SDS011;15244;49.088;11.886;2022-10-16T02:33:00;1.83;;;1.70;;
27424;SDS011;15244;49.088;11.886;2022-10-16T02:38:03;3.58;;;1.90;;
27424;SDS011;15244;49.088;11.886;2022-10-16T02:43:07;1.83;;;1.60;;
27424;SDS011;15244;49.088;11.886;2022-10-16T02:48:10;1.80;;;1.70;;
27424;SDS011;15244;49.088;11.886;2022-10-16T02:53:12;2.20;;;1.50;;
27424;SDS011;15244;49.088;11.886;2022-10-16T02:58:14;2.13;;;1.60;;
27424;SDS011;15244;49.088;11.886;2022-10-16T03:03:16;2.10;;;1.73;;
27424;SDS011;15244;49.088;11.886;2022-10-16T03:08:18;2.33;;;1.70;;
27424;SDS011;15244;49.088;11.886;2022-10-16T03:13:24;2.20;;;1.80;;
27424;SDS011;15244;49.088;11.886;2022-10-16T03:18:26;1.67;;;1.58;;
27424;SDS011;15244;49.088;11.886;2022-10-16T03:23:28;2.00;;;1.83;;
27424;SDS011;15244;49.088;11.886;2022-10-16T03:28:31;2.25;;;1.80;;
27424;SDS011;15244;49.088;11.886;2022-10-16T03:33:33;1.75;;;1.65;;
27424;SDS011;15244;49.088;11.886;2022-10-16T03:38:34;2.28;;;1.45;;
27424;SDS011;15244;49.088;11.886;2022-10-16T03:43:36;2.08;;;1.42;;
27424;SDS011;15244;49.088;11.886;2022-10-16T03:48:38;1.42;;;1.33;;
27424;SDS011;15244;49.088;11.886;2022-10-16T03:53:41;1.50;;;1.40;;
27424;SDS011;15244;49.088;11.886;2022-10-16T03:58:42;1.45;;;1.17;;
27424;SDS011;15244;49.088;11.886;2022-10-16T04:03:44;2.58;;;1.35;;
27424;SDS011;15244;49.088;11.886;2022-10-16T04:08:46;2.25;;;1.40;;
27424;SDS011;15244;49.088;11.886;2022-10-16T04:13:48;1.58;;;1.48;;
27424;SDS011;15244;49.088;11.886;2022-10-16T04:18:51;1.85;;;1.40;;
27424;SDS011;15244;49.088;11.886;2022-10-16T04:23:53;1.73;;;1.20;;
27424;SDS011;15244;49.088;11.886;2022-10-16T04:28:55;1.55;;;1.45;;
27424;SDS011;15244;49.088;11.886;2022-10-16T04:33:57;1.60;;;1.50;;
27424;SDS011;15244;49.088;11.886;2022-10-16T04:38:58;4.25;;;1.45;;
27424;SDS011;15244;49.088;11.886;2022-10-16T04:44:00;3.38;;;1.60;;
27424;SDS011;15244;49.088;11.886;2022-10-16T04:49:03;2.67;;;1.38;;
27424;SDS011;15244;49.088;11.886;2022-10-16T04:54:05;1.40;;;1.30;;
27424;SDS011;15244;49.088;11.886;2022-10-16T04:59:07;2.17;;;1.83;;
27424;SDS011;15244;49.088;11.886;2022-10-16T05:04:09;1.70;;;1.60;;
27424;SDS011;15244;49.088;11.886;2022-10-16T05:09:11;2.35;;;2.25;;
27424;SDS011;15244;49.088;11.886;2022-10-16T05:14:12;7.65;;;2.15;;
27424;SDS011;15244;49.088;11.886;2022-10-16T05:19:14;6.53;;;1.80;;
27424;SDS011;15244;49.088;11.886;2022-10-16T05:24:29;2.60;;;2.40;;
27424;SDS011;15244;49.088;11.886;2022-10-16T05:29:30;3.50;;;2.58;;
27424;SDS011;15244;49.088;11.886;2022-10-16T05:34:33;2.53;;;1.90;;
27424;SDS011;15244;49.088;11.886;2022-10-16T05:39:36;1.98;;;1.88;;
27424;SDS011;15244;49.088;11.886;2022-10-16T05:44:38;2.58;;;2.25;;
27424;SDS011;15244;49.088;11.886;2022-10-16T05:49:40;2.33;;;2.13;;
27424;SDS011;15244;49.088;11.886;2022-10-16T05:54:41;3.05;;;2.08;;
27424;SDS011;15244;49.088;11.886;2022-10-16T05:59:43;2.90;;;2.47;;
27424;SDS011;15244;49.088;11.886;2022-10-16T06:04:45;3.00;;;2.80;;
27424;SDS011;15244;49.088;11.886;2022-10-16T06:09:53;2.53;;;2.40;;
27424;SDS011;15244;49.088;11.886;2022-10-16T06:14:55;2.30;;;2.20;;
27424;SDS011;15244;49.088;11.886;2022-10-16T06:19:57;2.45;;;2.28;;
27424;SDS011;15244;49.088;11.886;2022-10-16T06:24:59;2.22;;;2.13;;
27424;SDS011;15244;49.088;11.886;2022-10-16T06:30:00;2.75;;;2.50;;
27424;SDS011;15244;49.088;11.886;2022-10-16T06:35:02;2.30;;;2.20;;
27424;SDS011;15244;49.088;11.886;2022-10-16T06:40:04;2.90;;;2.13;;
27424;SDS011;15244;49.088;11.886;2022-10-16T06:45:06;2.35;;;2.25;;
27424;SDS011;15244;49.088;11.886;2022-10-16T06:50:09;3.25;;;2.83;;
27424;SDS011;15244;49.088;11.886;2022-10-16T06:55:10;3.78;;;3.47;;
27424;SDS011;15244;49.088;11.886;2022-10-16T07:00:12;3.05;;;2.95;;
27424;SDS011;15244;49.088;11.886;2022-10-16T07:05:14;2.45;;;2.35;;
27424;SDS011;15244;49.088;11.886;2022-10-16T07:10:16;2.58;;;2.38;;
27424;SDS011;15244;49.088;11.886;2022-10-16T07:15:18;2.53;;;2.40;;
27424;SDS011;15244;49.088;11.886;2022-10-16T07:20:20;2.50;;;2.05;;
27424;SDS011;15244;49.088;11.886;2022-10-16T07:25:23;2.35;;;2.25;;
27424;SDS011;15244;49.088;11.886;2022-10-16T07:30:25;2.70;;;1.90;;
27424;SDS011;15244;49.088;11.886;2022-10-16T07:35:26;2.22;;;2.13;;
27424;SDS011;15244;49.088;11.886;2022-10-16T07:40:28;2.33;;;1.77;;
27424;SDS011;15244;49.088;11.886;2022-10-16T07:45:30;2.05;;;1.95;;
27424;SDS011;15244;49.088;11.886;2022-10-16T07:50:32;3.80;;;2.28;;
27424;SDS011;15244;49.088;11.886;2022-10-16T07:55:34;2.53;;;1.83;;
27424;SDS011;15244;49.088;11.886;2022-10-16T08:00:36;3.55;;;2.15;;
27424;SDS011;15244;49.088;11.886;2022-10-16T08:05:38;1.85;;;1.75;;
27424;SDS011;15244;49.088;11.886;2022-10-16T08:10:40;2.42;;;2.33;;
27424;SDS011;15244;49.088;11.886;2022-10-16T08:15:42;2.10;;;2.00;;
27424;SDS011;15244;49.088;11.886;2022-10-16T08:20:44;2.42;;;2.30;;
27424;SDS011;15244;49.088;11.886;2022-10-16T08:25:46;2.03;;;1.80;;
27424;SDS011;15244;49.088;11.886;2022-10-16T08:30:47;1.67;;;1.58;;
27424;SDS011;15244;49.088;11.886;2022-10-16T08:35:50;1.95;;;1.85;;
27424;SDS011;15244;49.088;11.886;2022-10-16T08:41:33;2.10;;;2.00;;
27424;SDS011;15244;49.088;11.886;2022-10-16T08:51:48;2.30;;;2.20;;
27424;SDS011;15244;49.088;11.886;2022-10-16T08:56:54;3.50;;;2.22;;
27424;SDS011;15244;49.088;11.886;2022-10-16T09:01:57;2.42;;;1.90;;
27424;SDS011;15244;49.088;11.886;2022-10-16T09:07:01;2.60;;;2.50;;
27424;SDS011;15244;49.088;11.886;2022-10-16T09:23:34;2.53;;;2.38;;
27424;SDS011;15244;49.088;11.886;2022-10-16T09:28:38;2.35;;;2.17;;
27424;SDS011;15244;49.088;11.886;2022-10-16T09:33:39;2.88;;;2.60;;
27424;SDS011;15244;49.088;11.886;2022-10-16T09:38:43;3.03;;;1.85;;
27424;SDS011;15244;49.088;11.886;2022-10-16T09:49:00;1.88;;;1.77;;
27424;SDS011;15244;49.088;11.886;2022-10-16T09:59:13;1.98;;;1.88;;
27424;SDS011;15244;49.088;11.886;2022-10-16T10:04:18;1.80;;;1.70;;
27424;SDS011;15244;49.088;11.886;2022-10-16T10:14:27;1.25;;;1.15;;
27424;SDS011;15244;49.088;11.886;2022-10-16T10:46:56;4.78;;;1.40;;
27424;SDS011;15244;49.088;11.886;2022-10-16T11:03:29;1.10;;;1.10;;
27424;SDS011;15244;49.088;11.886;2022-10-16T11:08:50;1.40;;;1.30;;
27424;SDS011;15244;49.088;11.886;2022-10-16T11:24:25;1.65;;;1.55;;
27424;SDS011;15244;49.088;11.886;2022-10-16T11:29:32;2.88;;;1.52;;
27424;SDS011;15244;49.088;11.886;2022-10-16T11:34:38;4.47;;;1.50;;
27424;SDS011;15244;49.088;11.886;2022-10-16T11:39:46;1.38;;;1.10;;
27424;SDS011;15244;49.088;11.886;2022-10-16T11:44:57;1.27;;;0.95;;
27424;SDS011;15244;49.088;11.886;2022-10-16T11:50:31;0.90;;;0.90;;
27424;SDS011;15244;49.088;11.886;2022-10-16T11:55:39;1.48;;;1.38;;
27424;SDS011;15244;49.088;11.886;2022-10-16T12:01:02;2.30;;;1.45;;
27424;SDS011;15244;49.088;11.886;2022-10-16T12:06:18;3.58;;;2.58;;
27424;SDS011;15244;49.088;11.886;2022-10-16T12:11:31;1.23;;;1.20;;
27424;SDS011;15244;49.088;11.886;2022-10-16T12:16:37;1.58;;;1.48;;
27424;SDS011;15244;49.088;11.886;2022-10-16T12:21:55;3.00;;;1.73;;
27424;SDS011;15244;49.088;11.886;2022-10-16T12:26:59;1.30;;;1.20;;
27424;SDS011;15244;49.088;11.886;2022-10-16T12:32:04;0.93;;;0.70;;
27424;SDS011;15244;49.088;11.886;2022-10-16T12:37:40;0.90;;;0.68;;
27424;SDS011;15244;49.088;11.886;2022-10-16T12:42:42;1.67;;;0.70;;
27424;SDS011;15244;49.088;11.886;2022-10-16T12:47:48;2.05;;;0.52;;
27424;SDS011;15244;49.088;11.886;2022-10-16T12:52:51;0.75;;;0.75;;
27424;SDS011;15244;49.088;11.886;2022-10-16T13:13:50;1.13;;;0.50;;
27424;SDS011;15244;49.088;11.886;2022-10-16T13:19:23;1.45;;;0.82;;
27424;SDS011;15244;49.088;11.886;2022-10-16T13:25:13;2.78;;;1.08;;
27424;SDS011;15244;49.088;11.886;2022-10-16T13:30:07;0.80;;;0.80;;
27424;SDS011;15244;49.088;11.886;2022-10-16T13:35:18;1.58;;;0.77;;
27424;SDS011;15244;49.088;11.886;2022-10-16T13:40:22;1.80;;;0.80;;
27424;SDS011;15244;49.088;11.886;2022-10-16T13:45:25;4.57;;;0.82;;
27424;SDS011;15244;49.088;11.886;2022-10-16T13:50:28;0.73;;;0.73;;
27424;SDS011;15244;49.088;11.886;2022-10-16T13:55:30;0.70;;;0.70;;
27424;SDS011;15244;49.088;11.886;2022-10-16T14:00:33;0.88;;;0.88;;
27424;SDS011;15244;49.088;11.886;2022-10-16T14:05:47;3.50;;;0.80;;
27424;SDS011;15244;49.088;11.886;2022-10-16T14:10:52;2.35;;;1.00;;
27424;SDS011;15244;49.088;11.886;2022-10-16T14:15:56;0.90;;;0.90;;
27424;SDS011;15244;49.088;11.886;2022-10-16T14:21:07;1.15;;;0.90;;
27424;SDS011;15244;49.088;11.886;2022-10-16T14:26:16;0.70;;;0.70;;
27424;SDS011;15244;49.088;11.886;2022-10-16T14:36:33;0.88;;;0.88;;
27424;SDS011;15244;49.088;11.886;2022-10-16T14:41:40;1.48;;;0.60;;
27424;SDS011;15244;49.088;11.886;2022-10-16T14:46:46;0.88;;;0.80;;
27424;SDS011;15244;49.088;11.886;2022-10-16T14:51:48;1.20;;;1.10;;
27424;SDS011;15244;49.088;11.886;2022-10-16T14:56:52;1.38;;;0.80;;
27424;SDS011;15244;49.088;11.886;2022-10-16T15:01:55;0.63;;;0.63;;
27424;SDS011;15244;49.088;11.886;2022-10-16T15:06:57;0.80;;;0.80;;
27424;SDS011;15244;49.088;11.886;2022-10-16T15:11:59;1.77;;;0.82;;
27424;SDS011;15244;49.088;11.886;2022-10-16T15:17:01;0.70;;;0.70;;
27424;SDS011;15244;49.088;11.886;2022-10-16T15:22:03;2.10;;;1.00;;
27424;SDS011;15244;49.088;11.886;2022-10-16T15:27:04;0.90;;;0.65;;
27424;SDS011;15244;49.088;11.886;2022-10-16T15:32:08;0.70;;;0.70;;
27424;SDS011;15244;49.088;11.886;2022-10-16T15:37:10;1.00;;;0.88;;
27424;SDS011;15244;49.088;11.886;2022-10-16T15:42:13;0.60;;;0.60;;
27424;SDS011;15244;49.088;11.886;2022-10-16T15:47:15;0.80;;;0.80;;
27424;SDS011;15244;49.088;11.886;2022-10-16T15:52:17;1.92;;;1.60;;
27424;SDS011;15244;49.088;11.886;2022-10-16T15:57:18;2.78;;;1.27;;
27424;SDS011;15244;49.088;11.886;2022-10-16T16:02:20;1.80;;;0.85;;
27424;SDS011;15244;49.088;11.886;2022-10-16T16:07:22;5.90;;;1.38;;
27424;SDS011;15244;49.088;11.886;2022-10-16T16:12:24;2.55;;;1.00;;
27424;SDS011;15244;49.088;11.886;2022-10-16T16:17:26;1.08;;;1.08;;
27424;SDS011;15244;49.088;11.886;2022-10-16T16:22:28;1.48;;;1.38;;
27424;SDS011;15244;49.088;11.886;2022-10-16T16:27:30;2.25;;;1.48;;
27424;SDS011;15244;49.088;11.886;2022-10-16T16:32:34;2.50;;;1.70;;
27424;SDS011;15244;49.088;11.886;2022-10-16T16:37:36;2.17;;;1.95;;
27424;SDS011;15244;49.088;11.886;2022-10-16T16:42:38;2.40;;;2.20;;
27424;SDS011;15244;49.088;11.886;2022-10-16T16:47:40;2.63;;;2.53;;
27424;SDS011;15244;49.088;11.886;2022-10-16T16:52:42;3.25;;;2.47;;
27424;SDS011;15244;49.088;11.886;2022-10-16T16:57:43;2.25;;;2.15;;
27424;SDS011;15244;49.088;11.886;2022-10-16T17:02:47;2.60;;;2.40;;
27424;SDS011;15244;49.088;11.886;2022-10-16T17:07:50;2.70;;;2.20;;
27424;SDS011;15244;49.088;11.886;2022-10-16T17:12:52;2.80;;;2.60;;
27424;SDS011;15244;49.088;11.886;2022-10-16T17:17:55;2.60;;;2.38;;
27424;SDS011;15244;49.088;11.886;2022-10-16T17:22:57;2.80;;;2.60;;
27424;SDS011;15244;49.088;11.886;2022-10-16T17:27:58;2.70;;;2.50;;
27424;SDS011;15244;49.088;11.886;2022-10-16T17:33:01;3.53;;;3.15;;
27424;SDS011;15244;49.088;11.886;2022-10-16T17:38:03;5.35;;;3.10;;
27424;SDS011;15244;49.088;11.886;2022-10-16T17:43:05;3.90;;;3.40;;
27424;SDS011;15244;49.088;11.886;2022-10-16T17:48:08;3.55;;;3.25;;
27424;SDS011;15244;49.088;11.886;2022-10-16T17:53:10;4.30;;;3.47;;
27424;SDS011;15244;49.088;11.886;2022-10-16T17:58:12;4.32;;;3.78;;
27424;SDS011;15244;49.088;11.886;2022-10-16T18:03:13;4.15;;;3.85;;
27424;SDS011;15244;49.088;11.886;2022-10-16T18:08:15;3.92;;;3.63;;
27424;SDS011;15244;49.088;11.886;2022-10-16T18:13:17;5.55;;;4.35;;
27424;SDS011;15244;49.088;11.886;2022-10-16T18:18:19;4.50;;;3.72;;
27424;SDS011;15244;49.088;11.886;2022-10-16T18:23:20;3.92;;;3.63;;
27424;SDS011;15244;49.088;11.886;2022-10-16T18:28:22;4.72;;;4.32;;
27424;SDS011;15244;49.088;11.886;2022-10-16T18:33:24;4.00;;;3.70;;
27424;SDS011;15244;49.088;11.886;2022-10-16T18:38:27;4.38;;;3.97;;
27424;SDS011;15244;49.088;11.886;2022-10-16T18:43:29;4.45;;;4.07;;
27424;SDS011;15244;49.088;11.886;2022-10-16T18:48:31;4.15;;;3.85;;
27424;SDS011;15244;49.088;11.886;2022-10-16T18:53:34;3.95;;;3.65;;
27424;SDS011;15244;49.088;11.886;2022-10-16T18:58:37;4.82;;;4.40;;
27424;SDS011;15244;49.088;11.886;2022-10-16T19:03:41;4.00;;;3.70;;
27424;SDS011;15244;49.088;11.886;2022-10-16T19:08:44;5.35;;;3.92;;
27424;SDS011;15244;49.088;11.886;2022-10-16T19:13:46;4.40;;;4.00;;
27424;SDS011;15244;49.088;11.886;2022-10-16T19:18:48;4.00;;;3.70;;
27424;SDS011;15244;49.088;11.886;2022-10-16T19:23:54;4.28;;;3.95;;
27424;SDS011;15244;49.088;11.886;2022-10-16T19:28:59;4.57;;;4.18;;
27424;SDS011;15244;49.088;11.886;2022-10-16T19:34:04;4.80;;;4.40;;
27424;SDS011;15244;49.088;11.886;2022-10-16T19:39:11;4.32;;;4.03;;
27424;SDS011;15244;49.088;11.886;2022-10-16T19:49:18;4.68;;;4.28;;
27424;SDS011;15244;49.088;11.886;2022-10-16T19:54:23;4.57;;;4.18;;
27424;SDS011;15244;49.088;11.886;2022-10-16T19:59:25;4.25;;;3.95;;
27424;SDS011;15244;49.088;11.886;2022-10-16T20:04:28;4.95;;;4.55;;
27424;SDS011;15244;49.088;11.886;2022-10-16T20:09:29;4.28;;;3.88;;
27424;SDS011;15244;49.088;11.886;2022-10-16T20:14:33;4.47;;;4.07;;
27424;SDS011;15244;49.088;11.886;2022-10-16T20:19:36;4.82;;;4.40;;
27424;SDS011;15244;49.088;11.886;2022-10-16T20:29:46;4.65;;;4.22;;
27424;SDS011;15244;49.088;11.886;2022-10-16T20:34:48;4.72;;;4.10;;
27424;SDS011;15244;49.088;11.886;2022-10-16T20:39:50;3.85;;;3.60;;
27424;SDS011;15244;49.088;11.886;2022-10-16T20:44:52;3.78;;;3.47;;
27424;SDS011;15244;49.088;11.886;2022-10-16T20:49:53;3.58;;;3.38;;
27424;SDS011;15244;49.088;11.886;2022-10-16T20:54:55;4.15;;;3.80;;
27424;SDS011;15244;49.088;11.886;2022-10-16T20:59:57;4.53;;;3.53;;
27424;SDS011;15244;49.088;11.886;2022-10-16T21:04:58;3.70;;;3.40;;
27424;SDS011;15244;49.088;11.886;2022-10-16T21:10:00;3.78;;;3.28;;
27424;SDS011;15244;49.088;11.886;2022-10-16T21:15:03;3.83;;;3.53;;
27424;SDS011;15244;49.088;11.886;2022-10-16T21:20:20;3.85;;;3.55;;
27424;SDS011;15244;49.088;11.886;2022-10-16T21:25:22;3.83;;;3.53;;
27424;SDS011;15244;49.088;11.886;2022-10-16T21:30:23;3.97;;;3.67;;
27424;SDS011;15244;49.088;11.886;2022-10-16T21:35:26;4.00;;;3.70;;
27424;SDS011;15244;49.088;11.886;2022-10-16T21:40:27;4.93;;;4.00;;
27424;SDS011;15244;49.088;11.886;2022-10-16T21:45:31;3.83;;;3.53;;
27424;SDS011;15244;49.088;11.886;2022-10-16T21:50:34;4.03;;;3.65;;
27424;SDS011;15244;49.088;11.886;2022-10-16T21:55:35;4.90;;;3.83;;
27424;SDS011;15244;49.088;11.886;2022-10-16T22:00:37;3.75;;;3.53;;
27424;SDS011;15244;49.088;11.886;2022-10-16T22:05:39;4.40;;;3.58;;
27424;SDS011;15244;49.088;11.886;2022-10-16T22:10:42;3.88;;;3.58;;
27424;SDS011;15244;49.088;11.886;2022-10-16T22:15:47;3.75;;;3.45;;
27424;SDS011;15244;49.088;11.886;2022-10-16T22:26:01;3.92;;;3.47;;
27424;SDS011;15244;49.088;11.886;2022-10-16T22:31:05;3.78;;;3.55;;
27424;SDS011;15244;49.088;11.886;2022-10-16T22:36:09;3.45;;;3.25;;
27424;SDS011;15244;49.088;11.886;2022-10-16T22:41:13;4.80;;;4.07;;
27424;SDS011;15244;49.088;11.886;2022-10-16T22:46:16;4.38;;;3.90;;
27424;SDS011;15244;49.088;11.886;2022-10-16T22:51:19;3.88;;;3.58;;
27424;SDS011;15244;49.088;11.886;2022-10-16T22:56:22;3.55;;;3.22;;
27424;SDS011;15244;49.088;11.886;2022-10-16T23:01:27;4.80;;;3.67;;
27424;SDS011;15244;49.088;11.886;2022-10-16T23:06:32;5.82;;;3.38;;
27424;SDS011;15244;49.088;11.886;2022-10-16T23:11:34;4.05;;;3.75;;
27424;SDS011;15244;49.088;11.886;2022-10-16T23:16:36;14.93;;;4.28;;
27424;SDS011;15244;49.088;11.886;2022-10-16T23:21:38;3.70;;;3.40;;
27424;SDS011;15244;49.088;11.886;2022-10-16T23:26:40;4.10;;;3.72;;
27424;SDS011;15244;49.088;11.886;2022-10-16T23:31:41;3.70;;;3.50;;
27424;SDS011;15244;49.088;11.886;2022-10-16T23:36:43;4.15;;;3.78;;
27424;SDS011;15244;49.088;11.886;2022-10-16T23:41:45;5.10;;;3.30;;
27424;SDS011;15244;49.088;11.886;2022-10-16T23:46:48;3.92;;;3.50;;
27424;SDS011;15244;49.088;11.886;2022-10-16T23:51:50;3.58;;;3.38;;
27424;SDS011;15244;49.088;11.886;2022-10-16T23:56:51;3.70;;;3.40;;
